createdAt,value
2022-08-30T00:02:18.371Z,100.00
2022-08-30T00:04:45.160Z,100.00
2022-08-30T00:07:12.376Z,100.00
2022-08-30T00:09:39.994Z,100.00
2022-08-30T00:12:09.008Z,100.00
2022-08-30T00:14:35.716Z,100.00
2022-08-30T00:17:02.805Z,100.00
2022-08-30T00:19:29.534Z,100.00
2022-08-30T00:21:56.218Z,100.00
2022-08-30T00:24:22.905Z,100.00
2022-08-30T00:26:49.563Z,100.00
2022-08-30T00:29:16.240Z,100.00
2022-08-30T00:31:43.849Z,100.00
2022-08-30T00:34:10.540Z,100.00
2022-08-30T00:36:37.663Z,100.00
2022-08-30T00:39:04.491Z,100.00
2022-08-30T00:41:31.114Z,100.00
2022-08-30T00:43:58.055Z,100.00
2022-08-30T00:46:27.782Z,100.00
2022-08-30T00:48:55.845Z,100.00
2022-08-30T00:51:23.302Z,100.00
2022-08-30T00:53:54.949Z,100.00
2022-08-30T00:56:28.301Z,100.00
2022-08-30T00:58:59.250Z,100.00
2022-08-30T01:01:27.445Z,100.00
2022-08-30T01:03:59.712Z,100.00
2022-08-30T01:06:26.488Z,100.00
2022-08-30T01:09:07.530Z,100.00
2022-08-30T01:11:37.472Z,100.00
2022-08-30T01:14:05.538Z,100.00
2022-08-30T01:16:34.600Z,100.00
2022-08-30T01:19:02.089Z,100.00
2022-08-30T01:21:52.730Z,100.00
2022-08-30T01:24:19.703Z,100.00
2022-08-30T01:26:46.386Z,100.00
2022-08-30T01:29:18.058Z,100.00
2022-08-30T01:31:44.692Z,100.00
2022-08-30T01:34:13.610Z,100.00
2022-08-30T01:36:45.040Z,100.00
2022-08-30T01:39:15.900Z,100.00
2022-08-30T01:41:43.644Z,100.00
2022-08-30T01:44:11.805Z,100.00
2022-08-30T01:46:42.597Z,100.00
2022-08-30T01:49:16.546Z,100.00
2022-08-30T01:51:44.447Z,100.00
2022-08-30T01:54:12.577Z,100.00
2022-08-30T01:56:39.791Z,100.00
2022-08-30T01:59:06.445Z,100.00
2022-08-30T02:01:37.031Z,100.00
2022-08-30T02:04:04.759Z,100.00
2022-08-30T02:06:31.546Z,100.00
2022-08-30T02:08:58.694Z,100.00
2022-08-30T02:11:25.890Z,100.00
2022-08-30T02:13:52.829Z,100.00
2022-08-30T02:16:23.027Z,100.00
2022-08-30T02:18:51.963Z,100.00
2022-08-30T02:21:19.009Z,100.00
2022-08-30T02:23:46.149Z,100.00
2022-08-30T02:26:13.809Z,100.00
2022-08-30T02:28:42.794Z,100.00
2022-08-30T02:31:25.029Z,100.00
2022-08-30T02:33:53.283Z,100.00
2022-08-30T02:36:21.475Z,100.00
2022-08-30T02:38:49.595Z,100.00
2022-08-30T02:41:17.008Z,100.00
2022-08-30T02:43:43.793Z,100.00
2022-08-30T02:46:10.483Z,100.00
2022-08-30T02:48:37.685Z,100.00
2022-08-30T02:51:11.269Z,100.00
2022-08-30T02:53:39.998Z,100.00
2022-08-30T02:56:06.837Z,100.00
2022-08-30T02:58:33.707Z,100.00
2022-08-30T03:01:00.960Z,100.00
2022-08-30T03:03:27.731Z,100.00
2022-08-30T03:05:54.441Z,100.00
2022-08-30T03:08:21.237Z,100.00
2022-08-30T03:10:47.908Z,100.00
2022-08-30T03:13:18.937Z,100.00
2022-08-30T03:15:45.682Z,100.00
2022-08-30T03:18:12.305Z,100.00
2022-08-30T03:20:41.210Z,100.00
2022-08-30T03:23:10.995Z,100.00
2022-08-30T03:25:48.351Z,100.00
2022-08-30T03:28:15.063Z,100.00
2022-08-30T03:30:41.700Z,100.00
2022-08-30T03:33:11.567Z,100.00
2022-08-30T03:35:38.349Z,100.00
2022-08-30T03:38:05.827Z,100.00
2022-08-30T03:40:32.731Z,100.00
2022-08-30T03:42:59.391Z,100.00
2022-08-30T03:45:26.470Z,100.00
2022-08-30T03:47:53.220Z,100.00
2022-08-30T03:50:19.861Z,100.00
2022-08-30T03:52:46.592Z,100.00
2022-08-30T03:55:14.595Z,100.00
2022-08-30T03:57:43.668Z,100.00
2022-08-30T04:00:12.028Z,100.00
2022-08-30T04:02:39.236Z,100.00
2022-08-30T04:05:09.109Z,100.00
2022-08-30T04:07:36.303Z,100.00
2022-08-30T04:10:07.441Z,100.00
2022-08-30T04:12:34.250Z,100.00
2022-08-30T04:15:00.925Z,100.00
2022-08-30T04:17:27.646Z,100.00
2022-08-30T04:19:54.401Z,100.00
2022-08-30T04:22:22.087Z,100.00
2022-08-30T04:24:48.864Z,100.00
2022-08-30T04:27:15.572Z,100.00
2022-08-30T04:29:44.544Z,100.00
2022-08-30T04:32:11.340Z,100.00
2022-08-30T04:34:40.576Z,100.00
2022-08-30T04:37:07.215Z,100.00
2022-08-30T04:39:43.792Z,100.00
2022-08-30T04:42:11.357Z,100.00
2022-08-30T04:44:38.184Z,100.00
2022-08-30T04:47:05.164Z,100.00
2022-08-30T04:49:32.410Z,100.00
2022-08-30T04:51:59.052Z,100.00
2022-08-30T04:54:25.738Z,100.00
2022-08-30T04:56:52.438Z,100.00
2022-08-30T04:59:20.644Z,100.00
2022-08-30T05:01:48.726Z,100.00
2022-08-30T05:04:16.007Z,100.00
2022-08-30T05:06:43.467Z,100.00
2022-08-30T05:09:12.712Z,100.00
2022-08-30T05:11:39.489Z,100.00
2022-08-30T05:14:06.831Z,100.00
2022-08-30T05:16:33.704Z,100.00
2022-08-30T05:19:00.509Z,100.00
2022-08-30T05:21:29.748Z,100.00
2022-08-30T05:24:00.110Z,100.00
2022-08-30T05:26:30.504Z,100.00
2022-08-30T05:28:57.778Z,100.00
2022-08-30T05:31:31.083Z,91.26
2022-08-30T05:33:57.857Z,80.21
2022-08-30T05:36:27.518Z,72.70
2022-08-30T05:38:55.317Z,67.75
2022-08-30T05:41:26.301Z,66.30
2022-08-30T05:43:54.998Z,65.19
2022-08-30T05:46:22.275Z,62.97
2022-08-30T05:48:49.555Z,60.44
2022-08-30T05:51:20.500Z,55.64
2022-08-30T05:53:48.650Z,54.61
2022-08-30T05:56:19.224Z,51.67
2022-08-30T05:58:45.863Z,49.91
2022-08-30T06:01:44.506Z,47.42
2022-08-30T06:04:13.536Z,43.97
2022-08-30T06:06:42.737Z,44.37
2022-08-30T06:09:11.540Z,43.75
2022-08-30T06:11:38.260Z,42.63
2022-08-30T06:14:06.152Z,42.95
2022-08-30T06:16:33.274Z,40.13
2022-08-30T06:19:00.767Z,39.50
2022-08-30T06:21:35.150Z,39.04
2022-08-30T06:24:03.949Z,38.24
2022-08-30T06:29:02.876Z,37.27
2022-08-30T06:31:30.531Z,35.65
2022-08-30T06:33:57.250Z,35.10
2022-08-30T06:36:25.829Z,35.40
2022-08-30T06:38:54.833Z,35.60
2022-08-30T06:41:24.934Z,34.99
2022-08-30T06:43:52.157Z,33.88
2022-08-30T06:46:27.638Z,37.70
2022-08-30T06:48:56.229Z,35.09
2022-08-30T06:51:26.394Z,36.38
2022-08-30T06:53:53.731Z,35.85
2022-08-30T06:56:22.220Z,34.64
2022-08-30T06:58:50.276Z,36.10
2022-08-30T07:01:20.006Z,38.10
2022-08-30T07:03:47.417Z,39.50
2022-08-30T07:06:14.767Z,38.72
2022-08-30T07:08:42.047Z,36.18
2022-08-30T07:11:11.493Z,37.53
2022-08-30T07:13:39.081Z,36.15
2022-08-30T07:16:12.533Z,37.73
2022-08-30T07:18:51.964Z,39.46
2022-08-30T07:21:27.987Z,42.56
2022-08-30T07:23:57.910Z,42.13
2022-08-30T07:26:32.710Z,43.04
2022-08-30T07:29:00.133Z,43.21
2022-08-30T07:31:26.824Z,43.07
2022-08-30T07:33:55.816Z,44.01
2022-08-30T07:36:23.437Z,47.62
2022-08-30T07:38:51.449Z,45.24
2022-08-30T07:41:30.176Z,43.53
2022-08-30T07:43:57.902Z,41.97
2022-08-30T07:46:26.113Z,42.83
2022-08-30T07:48:55.282Z,40.71
2022-08-30T07:51:24.620Z,41.22
2022-08-30T07:53:52.472Z,38.33
2022-08-30T07:56:19.606Z,36.92
2022-08-30T07:58:46.720Z,34.40
2022-08-30T08:01:13.833Z,33.35
2022-08-30T08:03:44.966Z,33.01
2022-08-30T08:06:14.527Z,33.30
2022-08-30T08:08:42.151Z,33.00
2022-08-30T08:11:16.274Z,35.37
2022-08-30T08:13:53.554Z,34.16
2022-08-30T08:16:23.413Z,35.19
2022-08-30T08:18:50.355Z,35.82
2022-08-30T08:21:17.291Z,36.19
2022-08-30T08:23:44.554Z,34.43
2022-08-30T08:26:11.278Z,34.52
2022-08-30T08:28:37.927Z,34.53
2022-08-30T08:31:33.451Z,36.13
2022-08-30T08:34:02.824Z,34.95
2022-08-30T08:36:31.435Z,35.25
2022-08-30T08:38:58.638Z,37.38
2022-08-30T08:41:34.393Z,37.51
2022-08-30T08:44:08.031Z,37.18
2022-08-30T08:47:03.952Z,35.24
2022-08-30T08:49:32.079Z,35.65
2022-08-30T08:52:17.367Z,35.03
2022-08-30T08:55:00.591Z,35.42
2022-08-30T08:57:33.623Z,37.45
2022-08-30T09:00:00.406Z,37.86
2022-08-30T09:02:39.158Z,38.78
2022-08-30T09:05:06.714Z,38.06
2022-08-30T09:07:39.886Z,39.48
2022-08-30T09:10:06.981Z,42.17
2022-08-30T09:12:33.986Z,40.86
2022-08-30T09:15:16.283Z,39.32
2022-08-30T09:17:51.066Z,43.13
2022-08-30T09:20:45.830Z,41.59
2022-08-30T09:23:15.539Z,42.48
2022-08-30T09:25:54.767Z,40.82
2022-08-30T09:28:28.399Z,40.40
2022-08-30T09:31:12.343Z,41.88
2022-08-30T09:33:39.553Z,42.22
2022-08-30T09:36:29.810Z,42.91
2022-08-30T09:39:06.768Z,40.84
2022-08-30T09:41:48.333Z,41.73
2022-08-30T09:44:21.566Z,43.42
2022-08-30T09:46:57.356Z,44.16
2022-08-30T09:49:39.789Z,43.92
2022-08-30T09:52:18.624Z,44.97
2022-08-30T09:54:53.527Z,41.29
2022-08-30T09:57:33.662Z,43.86
2022-08-30T10:00:21.992Z,45.25
2022-08-30T10:02:50.539Z,43.28
2022-08-30T10:05:20.716Z,41.88
2022-08-30T10:08:17.383Z,45.55
2022-08-30T10:11:10.220Z,44.00
2022-08-30T10:13:56.211Z,42.81
2022-08-30T10:16:40.921Z,44.51
2022-08-30T10:19:45.222Z,43.76
2022-08-30T10:22:24.460Z,42.95
2022-08-30T10:25:03.361Z,43.38
2022-08-30T10:27:41.587Z,44.26
2022-08-30T10:30:13.910Z,41.55
2022-08-30T10:33:05.093Z,40.82
2022-08-30T10:35:55.320Z,40.47
2022-08-30T10:38:26.781Z,41.84
2022-08-30T10:41:13.560Z,44.26
2022-08-30T10:43:40.153Z,44.83
2022-08-30T10:46:20.100Z,42.44
2022-08-30T10:48:48.390Z,40.91
2022-08-30T10:51:41.875Z,42.52
2022-08-30T10:54:18.655Z,41.38
2022-08-30T10:56:49.525Z,41.09
2022-08-30T10:59:21.193Z,41.44
2022-08-30T11:01:48.091Z,39.26
2022-08-30T11:04:23.972Z,38.87
2022-08-30T11:07:12.132Z,36.62
2022-08-30T11:10:03.483Z,38.79
2022-08-30T11:12:35.211Z,37.19
2022-08-30T11:15:25.162Z,39.71
2022-08-30T11:18:09.385Z,40.75
2022-08-30T11:20:56.408Z,40.19
2022-08-30T11:23:36.353Z,40.76
2022-08-30T11:26:03.100Z,41.88
2022-08-30T11:28:35.609Z,41.68
2022-08-30T11:31:18.162Z,38.36
2022-08-30T11:33:52.665Z,36.47
2022-08-30T11:36:37.044Z,37.40
2022-08-30T11:39:08.928Z,40.48
2022-08-30T11:41:43.193Z,42.42
2022-08-30T11:44:21.772Z,42.04
2022-08-30T11:47:01.530Z,44.00
2022-08-30T11:49:41.734Z,42.02
2022-08-30T11:52:30.036Z,41.88
2022-08-30T11:55:16.936Z,39.50
2022-08-30T11:58:05.757Z,38.34
2022-08-30T12:00:35.425Z,40.96
2022-08-30T12:03:15.468Z,41.31
2022-08-30T12:05:58.966Z,40.39
2022-08-30T12:08:35.260Z,39.97
2022-08-30T12:11:10.549Z,40.72
2022-08-30T12:13:43.780Z,38.42
2022-08-30T12:16:14.851Z,39.05
2022-08-30T12:18:52.931Z,40.19
2022-08-30T12:21:22.055Z,38.56
2022-08-30T12:23:54.635Z,40.97
2022-08-30T12:26:26.819Z,41.44
2022-08-30T12:29:06.046Z,41.47
2022-08-30T12:31:33.559Z,40.81
2022-08-30T12:34:02.146Z,40.58
2022-08-30T12:36:52.844Z,43.47
2022-08-30T12:39:24.457Z,41.24
2022-08-30T12:41:51.910Z,43.80
2022-08-30T12:44:26.539Z,45.52
2022-08-30T12:47:01.035Z,41.31
2022-08-30T12:49:34.327Z,41.82
2022-08-30T12:52:21.320Z,41.31
2022-08-30T12:54:48.187Z,42.24
2022-08-30T12:57:36.172Z,43.60
2022-08-30T13:00:05.473Z,42.50
2022-08-30T13:03:16.288Z,44.75
2022-08-30T13:05:48.038Z,44.68
2022-08-30T13:08:29.799Z,43.55
2022-08-30T13:11:08.774Z,42.86
2022-08-30T13:13:44.605Z,42.20
2022-08-30T13:16:23.465Z,41.88
2022-08-30T13:18:58.000Z,43.36
2022-08-30T13:21:36.474Z,39.99
2022-08-30T13:24:06.050Z,44.97
2022-08-30T13:26:40.506Z,41.45
2022-08-30T13:29:14.285Z,42.14
2022-08-30T13:31:41.440Z,44.42
2022-08-30T13:34:08.348Z,43.07
2022-08-30T13:36:37.817Z,45.48
2022-08-30T13:39:06.459Z,43.84
2022-08-30T13:41:34.433Z,44.46
2022-08-30T13:44:11.692Z,44.08
2022-08-30T13:46:43.085Z,45.13
2022-08-30T13:52:20.536Z,47.32
2022-08-30T13:54:52.794Z,50.39
2022-08-30T14:00:14.915Z,49.56
2022-08-30T14:02:46.430Z,50.60
2022-08-30T14:05:47.077Z,54.62
2022-08-30T14:08:06.707Z,56.52
2022-08-30T14:10:39.378Z,56.98
2022-08-30T14:13:14.608Z,59.06
2022-08-30T14:15:41.588Z,59.53
2022-08-30T14:18:08.770Z,62.03
2022-08-30T14:20:38.712Z,65.60
2022-08-30T14:23:07.648Z,67.71
2022-08-30T14:25:40.907Z,69.07
2022-08-30T14:28:08.256Z,74.86
2022-08-30T14:30:36.467Z,74.22
2022-08-30T14:33:03.267Z,73.98
2022-08-30T14:35:30.027Z,73.74
2022-08-30T14:37:57.354Z,71.52
2022-08-30T14:40:26.091Z,73.20
2022-08-30T14:42:53.047Z,71.02
2022-08-30T14:45:19.816Z,73.12
2022-08-30T14:47:47.011Z,71.96
2022-08-30T14:50:14.454Z,76.66
2022-08-30T14:52:41.228Z,78.54
2022-08-30T14:55:13.272Z,79.07
2022-08-30T14:57:40.542Z,79.45
2022-08-30T15:00:10.625Z,81.91
2022-08-30T15:02:37.525Z,86.66
2022-08-30T15:05:06.889Z,86.94
2022-08-30T15:07:35.528Z,86.10
2022-08-30T15:12:53.802Z,91.38
2022-08-30T15:15:21.926Z,88.82
2022-08-30T15:17:49.269Z,90.78
2022-08-30T15:20:20.741Z,90.29
2022-08-30T15:22:50.581Z,93.76
2022-08-30T15:25:19.474Z,94.74
2022-08-30T15:27:46.128Z,95.17
2022-08-30T15:30:16.038Z,98.32
2022-08-30T15:32:46.537Z,97.05
2022-08-30T15:35:13.287Z,98.25
2022-08-30T15:37:41.975Z,100.00
2022-08-30T15:40:09.791Z,100.00
2022-08-30T15:42:36.579Z,100.00
2022-08-30T15:47:55.447Z,97.12
2022-08-30T15:50:22.202Z,94.70
2022-08-30T15:52:48.817Z,95.56
2022-08-30T15:55:17.213Z,87.90
2022-08-30T15:57:43.847Z,93.60
2022-08-30T16:00:12.618Z,94.95
2022-08-30T16:02:39.363Z,98.40
2022-08-30T16:05:09.546Z,96.29
2022-08-30T16:07:40.805Z,95.86
2022-08-30T16:10:08.856Z,94.62
2022-08-30T16:12:35.507Z,90.90
2022-08-30T16:15:04.088Z,96.31
2022-08-30T16:17:30.774Z,99.73
2022-08-30T16:19:59.618Z,93.95
2022-08-30T16:22:26.627Z,94.21
2022-08-30T16:24:53.532Z,94.60
2022-08-30T16:27:21.079Z,96.85
2022-08-30T16:29:48.375Z,97.81
2022-08-30T16:32:17.221Z,97.08
2022-08-30T16:34:43.947Z,96.91
2022-08-30T16:37:10.776Z,99.36
2022-08-30T16:39:37.471Z,100.00
2022-08-30T16:42:06.893Z,100.00
2022-08-30T16:44:33.911Z,98.89
2022-08-30T16:47:01.663Z,100.00
2022-08-30T16:49:30.961Z,100.00
2022-08-30T16:51:58.162Z,100.00
2022-08-30T16:54:25.424Z,100.00
2022-08-30T16:56:54.851Z,100.00
2022-08-30T16:59:25.805Z,100.00
2022-08-30T17:01:54.666Z,100.00
2022-08-30T17:04:21.505Z,100.00
2022-08-30T17:06:50.538Z,100.00
2022-08-30T17:09:22.235Z,100.00
2022-08-30T17:11:50.717Z,100.00
2022-08-30T17:14:22.910Z,100.00
2022-08-30T17:16:58.533Z,100.00
2022-08-30T17:19:28.741Z,100.00
2022-08-30T17:21:59.550Z,100.00
2022-08-30T17:24:30.666Z,100.00
2022-08-30T17:26:58.308Z,100.00
2022-08-30T17:29:25.224Z,100.00
2022-08-30T17:31:56.067Z,100.00
2022-08-30T17:34:24.728Z,100.00
2022-08-30T17:36:55.899Z,100.00
2022-08-30T17:39:24.679Z,100.00
2022-08-30T17:41:51.653Z,100.00
2022-08-30T17:44:25.543Z,100.00
2022-08-30T17:46:53.313Z,100.00
2022-08-30T17:49:20.035Z,100.00
2022-08-30T17:51:51.780Z,100.00
2022-08-30T17:54:24.565Z,100.00
2022-08-30T17:56:53.436Z,100.00
2022-08-30T17:59:25.175Z,100.00
2022-08-30T18:01:55.738Z,100.00
2022-08-30T18:04:26.661Z,100.00
2022-08-30T18:06:54.724Z,100.00
2022-08-30T18:09:21.803Z,100.00
2022-08-30T18:11:49.346Z,100.00
2022-08-30T18:14:16.619Z,100.00
2022-08-30T18:16:53.789Z,100.00
2022-08-30T18:19:25.608Z,100.00
2022-08-30T18:21:53.329Z,100.00
2022-08-30T18:24:21.277Z,100.00
2022-08-30T18:26:48.770Z,100.00
2022-08-30T18:29:15.531Z,100.00
2022-08-30T18:31:55.686Z,100.00
2022-08-30T18:34:23.045Z,100.00
2022-08-30T18:36:49.652Z,100.00
2022-08-30T18:39:16.461Z,100.00
2022-08-30T18:41:44.966Z,100.00
2022-08-30T18:44:27.113Z,100.00
2022-08-30T18:46:56.793Z,100.00
2022-08-30T18:49:25.227Z,100.00
2022-08-30T18:51:52.066Z,100.00
2022-08-30T18:54:19.044Z,100.00
2022-08-30T18:56:46.195Z,100.00
2022-08-30T18:59:13.119Z,100.00
2022-08-30T19:01:40.757Z,100.00
2022-08-30T19:04:08.077Z,100.00
2022-08-30T19:06:35.003Z,100.00
2022-08-30T19:09:08.977Z,100.00
2022-08-30T19:11:36.535Z,100.00
2022-08-30T19:14:07.717Z,100.00
2022-08-30T19:16:34.555Z,100.00
2022-08-30T19:19:03.234Z,100.00
2022-08-30T19:21:30.138Z,100.00
2022-08-30T19:23:58.458Z,100.00
2022-08-30T19:26:27.427Z,100.00
2022-08-30T19:28:54.412Z,100.00
2022-08-30T19:31:21.122Z,100.00
2022-08-30T19:33:47.781Z,100.00
2022-08-30T19:36:14.681Z,100.00
2022-08-30T19:38:44.349Z,100.00
2022-08-30T19:41:12.725Z,100.00
2022-08-30T19:43:40.296Z,100.00
2022-08-30T19:46:08.920Z,100.00
2022-08-30T19:48:43.020Z,100.00
2022-08-30T19:51:14.911Z,100.00
2022-08-30T19:53:43.419Z,100.00
2022-08-30T19:56:10.900Z,100.00
2022-08-30T19:58:37.804Z,100.00
2022-08-30T20:01:11.973Z,100.00
2022-08-30T20:03:52.258Z,100.00
2022-08-30T20:06:19.636Z,100.00
2022-08-30T20:08:47.424Z,100.00
2022-08-30T20:11:19.217Z,100.00
2022-08-30T20:13:47.195Z,100.00
2022-08-30T20:16:15.228Z,100.00
2022-08-30T20:18:43.616Z,100.00
2022-08-30T20:21:15.749Z,100.00
2022-08-30T20:23:43.317Z,100.00
2022-08-30T20:26:11.963Z,100.00
2022-08-30T20:28:39.957Z,100.00
2022-08-30T20:31:08.048Z,100.00
2022-08-30T20:33:37.625Z,100.00
2022-08-30T20:36:12.500Z,100.00
2022-08-30T20:38:40.066Z,100.00
2022-08-30T20:41:19.178Z,100.00
2022-08-30T20:43:46.454Z,100.00
2022-08-30T20:46:16.642Z,100.00
2022-08-30T20:48:44.584Z,100.00
2022-08-30T20:51:15.461Z,100.00
2022-08-30T20:53:42.754Z,100.00
2022-08-30T20:56:15.428Z,100.00
2022-08-30T20:58:42.253Z,100.00
2022-08-30T21:01:11.388Z,100.00
2022-08-30T21:03:40.951Z,100.00
2022-08-30T21:06:13.674Z,100.00
2022-08-30T21:08:40.436Z,100.00
2022-08-30T21:11:09.922Z,100.00
2022-08-30T21:13:37.991Z,100.00
2022-08-30T21:16:06.163Z,100.00
2022-08-30T21:18:38.219Z,100.00
2022-08-30T21:21:13.829Z,100.00
2022-08-30T21:23:42.912Z,100.00
2022-08-30T21:26:10.410Z,100.00
2022-08-30T21:28:38.816Z,100.00
2022-08-30T21:31:15.172Z,100.00
2022-08-30T21:33:42.378Z,100.00
2022-08-30T21:36:27.950Z,100.00
2022-08-30T21:38:57.496Z,100.00
2022-08-30T21:41:28.341Z,100.00
2022-08-30T21:43:58.055Z,100.00
2022-08-30T21:46:26.349Z,100.00
2022-08-30T21:48:53.917Z,100.00
2022-08-30T21:51:21.415Z,100.00
2022-08-30T21:53:48.099Z,100.00
2022-08-30T21:56:21.709Z,100.00
2022-08-30T21:58:49.464Z,100.00
2022-08-30T22:01:22.793Z,100.00
2022-08-30T22:03:51.572Z,100.00
2022-08-30T22:06:18.351Z,100.00
2022-08-30T22:08:49.057Z,100.00
2022-08-30T22:11:22.642Z,100.00
2022-08-30T22:13:50.671Z,100.00
2022-08-30T22:16:20.512Z,100.00
2022-08-30T22:18:48.254Z,100.00
2022-08-30T22:21:19.561Z,100.00
2022-08-30T22:23:46.734Z,100.00
2022-08-30T22:26:15.521Z,100.00
2022-08-30T22:28:43.666Z,100.00
2022-08-30T22:31:12.893Z,100.00
2022-08-30T22:33:42.676Z,100.00
2022-08-30T22:36:13.201Z,100.00
2022-08-30T22:38:41.039Z,100.00
2022-08-30T22:41:13.319Z,100.00
2022-08-30T22:43:40.526Z,100.00
2022-08-30T22:46:08.025Z,100.00
2022-08-30T22:48:41.031Z,100.00
2022-08-30T22:51:08.593Z,100.00
2022-08-30T22:53:36.068Z,100.00
2022-08-30T22:56:15.354Z,100.00
2022-08-30T22:58:42.611Z,100.00
2022-08-30T23:01:10.389Z,100.00
2022-08-30T23:03:39.602Z,100.00
2022-08-30T23:06:06.441Z,100.00
2022-08-30T23:08:33.091Z,100.00
2022-08-30T23:10:59.738Z,100.00
2022-08-30T23:13:26.538Z,100.00
2022-08-30T23:15:53.193Z,100.00
2022-08-30T23:18:21.880Z,100.00
2022-08-30T23:20:48.504Z,100.00
2022-08-30T23:23:33.876Z,100.00
2022-08-30T23:26:20.037Z,100.00
2022-08-30T23:29:05.342Z,100.00
2022-08-30T23:31:50.571Z,100.00
2022-08-30T23:34:36.157Z,100.00
2022-08-30T23:37:22.225Z,100.00
2022-08-30T23:40:12.766Z,100.00
2022-08-30T23:43:00.328Z,100.00
2022-08-30T23:45:46.702Z,100.00
2022-08-30T23:48:32.039Z,100.00
2022-08-30T23:51:22.056Z,100.00
2022-08-30T23:54:07.617Z,100.00
2022-08-30T23:56:52.839Z,100.00
2022-08-30T23:59:38.028Z,100.00
